createdAt,value
2023-05-02T00:00:55.353Z,98641.44
2023-05-02T00:03:22.170Z,98637.72
2023-05-02T00:05:49.189Z,98637.88
2023-05-02T00:08:16.460Z,98632.44
2023-05-02T00:10:43.542Z,98638.88
2023-05-02T00:13:10.397Z,98635.34
2023-05-02T00:15:37.409Z,98638.75
2023-05-02T00:18:04.179Z,98635.50
2023-05-02T00:20:31.241Z,98629.53
2023-05-02T00:22:58.129Z,98625.56
2023-05-02T00:25:25.243Z,98611.81
2023-05-02T00:27:52.883Z,98617.03
2023-05-02T00:30:21.171Z,98614.63
2023-05-02T00:32:48.040Z,98613.59
2023-05-02T00:35:15.116Z,98617.97
2023-05-02T00:37:41.846Z,98619.84
2023-05-02T00:40:09.383Z,98619.84
2023-05-02T00:42:36.645Z,98617.81
2023-05-02T00:45:06.522Z,98621.22
2023-05-02T00:47:33.608Z,98617.13
2023-05-02T00:50:01.540Z,98619.84
2023-05-02T00:52:28.778Z,98616.41
2023-05-02T00:54:55.840Z,98620.84
2023-05-02T00:57:23.018Z,98617.97
2023-05-02T00:59:50.166Z,98624.94
2023-05-02T01:02:26.131Z,98618.81
2023-05-02T01:05:10.461Z,98621.38
2023-05-02T01:07:46.507Z,98624.25
2023-05-02T01:10:42.261Z,98627.13
2023-05-02T01:13:23.197Z,98628.44
2023-05-02T01:15:51.821Z,98626.19
2023-05-02T01:18:21.318Z,98625.50
2023-05-02T01:20:48.522Z,98627.19
2023-05-02T01:23:46.366Z,98632.47
2023-05-02T01:26:34.377Z,98631.78
2023-05-02T01:29:02.333Z,98624.81
2023-05-02T01:31:37.202Z,98622.53
2023-05-02T01:34:05.511Z,98617.97
2023-05-02T01:36:32.715Z,98618.97
2023-05-02T01:39:00.532Z,98623.53
2023-05-02T01:41:28.684Z,98625.72
2023-05-02T01:43:57.310Z,98617.34
2023-05-02T01:46:26.608Z,98618.16
2023-05-02T01:48:53.390Z,98621.75
2023-05-02T01:51:20.436Z,98617.47
2023-05-02T01:53:48.141Z,98621.03
2023-05-02T01:56:16.938Z,98621.38
2023-05-02T01:58:43.601Z,98623.22
2023-05-02T02:01:10.826Z,98625.25
2023-05-02T02:03:37.692Z,98614.66
2023-05-02T02:06:04.955Z,98613.84
2023-05-02T02:08:31.824Z,98623.59
2023-05-02T02:11:00.673Z,98622.97
2023-05-02T02:13:32.365Z,98622.97
2023-05-02T02:16:01.191Z,98623.75
2023-05-02T02:18:28.064Z,98622.88
2023-05-02T02:20:55.164Z,98627.31
2023-05-02T02:23:23.174Z,98624.75
2023-05-02T02:25:50.671Z,98612.00
2023-05-02T02:28:17.431Z,98623.91
2023-05-02T02:30:44.532Z,98625.19
2023-05-02T02:33:11.281Z,98618.06
2023-05-02T02:35:40.950Z,98620.25
2023-05-02T02:38:27.136Z,98621.53
2023-05-02T02:41:05.913Z,98615.16
2023-05-02T02:43:54.157Z,98615.84
2023-05-02T02:46:39.776Z,98619.31
2023-05-02T02:49:18.890Z,98627.28
2023-05-02T02:51:50.438Z,98626.56
2023-05-02T02:54:36.273Z,98629.84
2023-05-02T02:57:14.140Z,98629.72
2023-05-02T02:59:44.402Z,98629.19
2023-05-02T03:02:12.995Z,98632.72
2023-05-02T03:04:42.167Z,98635.28
2023-05-02T03:07:09.288Z,98637.44
2023-05-02T03:09:45.856Z,98638.75
2023-05-02T03:12:12.970Z,98638.91
2023-05-02T03:14:39.920Z,98643.00
2023-05-02T03:17:08.526Z,98642.31
2023-05-02T03:19:35.842Z,98646.91
2023-05-02T03:22:03.688Z,98646.91
2023-05-02T03:24:30.585Z,98646.75
2023-05-02T03:26:59.091Z,98642.47
2023-05-02T03:29:26.225Z,98646.19
2023-05-02T03:31:53.321Z,98644.47
2023-05-02T03:34:22.005Z,98646.50
2023-05-02T03:36:49.241Z,98641.50
2023-05-02T03:39:15.973Z,98649.66
2023-05-02T03:41:43.957Z,98651.38
2023-05-02T03:44:10.924Z,98646.94
2023-05-02T03:46:38.215Z,98653.22
2023-05-02T03:49:04.970Z,98650.94
2023-05-02T03:51:33.882Z,98656.22
2023-05-02T03:54:02.598Z,98658.22
2023-05-02T03:56:29.714Z,98663.78
2023-05-02T03:58:56.463Z,98664.81
2023-05-02T04:01:23.700Z,98669.38
2023-05-02T04:03:51.955Z,98671.25
2023-05-02T04:06:19.060Z,98672.38
2023-05-02T04:08:45.797Z,98668.66
2023-05-02T04:11:12.878Z,98675.25
2023-05-02T04:13:39.673Z,98675.97
2023-05-02T04:16:06.979Z,98678.56
2023-05-02T04:18:33.787Z,98677.56
2023-05-02T04:21:00.762Z,98685.38
2023-05-02T04:23:27.467Z,98677.38
2023-05-02T04:25:55.024Z,98688.25
2023-05-02T04:28:22.287Z,98676.41
2023-05-02T04:30:49.841Z,98682.66
2023-05-02T04:33:18.493Z,98688.25
2023-05-02T04:35:45.561Z,98691.84
2023-05-02T04:38:12.293Z,98697.13
2023-05-02T04:40:39.344Z,98696.97
2023-05-02T04:43:06.168Z,98697.97
2023-05-02T04:45:35.792Z,98704.94
2023-05-02T04:48:03.657Z,98699.38
2023-05-02T04:50:32.163Z,98700.25
2023-05-02T04:52:59.515Z,98695.25
2023-05-02T04:55:26.273Z,98700.53
2023-05-02T04:57:53.380Z,98693.94
2023-05-02T05:00:20.273Z,98707.06
2023-05-02T05:02:47.611Z,98703.38
2023-05-02T05:05:14.558Z,98701.09
2023-05-02T05:07:41.605Z,98709.09
2023-05-02T05:10:11.289Z,98707.63
2023-05-02T05:12:38.349Z,98703.50
2023-05-02T05:15:05.482Z,98708.78
2023-05-02T05:17:32.779Z,98710.19
2023-05-02T05:19:59.790Z,98696.19
2023-05-02T05:22:27.034Z,98703.34
2023-05-02T05:24:54.127Z,98706.59
2023-05-02T05:27:21.547Z,98700.31
2023-05-02T05:29:48.482Z,98702.56
2023-05-02T05:32:15.719Z,98705.59
2023-05-02T05:34:42.609Z,98700.72
2023-05-02T05:37:09.734Z,98704.16
2023-05-02T05:39:36.617Z,98716.81
2023-05-02T05:42:03.760Z,98714.81
2023-05-02T05:44:31.679Z,98713.38
2023-05-02T05:46:58.856Z,98718.19
2023-05-02T05:49:25.721Z,98720.31
2023-05-02T05:51:52.801Z,98723.00
2023-05-02T05:54:19.584Z,98729.69
2023-05-02T05:56:47.016Z,98725.00
2023-05-02T05:59:13.796Z,98727.06
2023-05-02T06:01:40.945Z,98732.91
2023-05-02T06:04:07.955Z,98733.16
2023-05-02T06:06:35.259Z,98736.28
2023-05-02T06:09:02.282Z,98736.22
2023-05-02T06:11:29.369Z,98742.03
2023-05-02T06:13:56.152Z,98741.59
2023-05-02T06:16:23.320Z,98747.81
2023-05-02T06:18:50.793Z,98750.81
2023-05-02T06:21:17.799Z,98747.78
2023-05-02T06:23:44.555Z,98751.91
2023-05-02T06:26:11.607Z,98754.00
2023-05-02T06:28:38.375Z,98759.66
2023-05-02T06:31:05.987Z,98760.94
2023-05-02T06:33:33.446Z,98761.78
2023-05-02T06:36:02.006Z,98767.59
2023-05-02T06:38:29.197Z,98773.13
2023-05-02T06:40:56.416Z,98770.09
2023-05-02T06:43:23.219Z,98773.34
2023-05-02T06:45:53.189Z,98773.56
2023-05-02T06:48:20.025Z,98779.09
2023-05-02T06:50:47.694Z,98773.72
2023-05-02T06:53:14.469Z,98777.66
2023-05-02T06:55:41.459Z,98786.84
2023-05-02T06:58:08.375Z,98784.47
2023-05-02T07:00:35.479Z,98779.25
2023-05-02T07:03:02.367Z,98791.56
2023-05-02T07:05:29.816Z,98800.41
2023-05-02T07:07:56.522Z,98798.94
2023-05-02T07:10:23.965Z,98795.97
2023-05-02T07:12:50.724Z,98797.91
2023-05-02T07:15:18.036Z,98805.75
2023-05-02T07:17:44.848Z,98804.56
2023-05-02T07:20:12.305Z,98795.38
2023-05-02T07:22:39.103Z,98803.94
2023-05-02T07:25:06.560Z,98813.00
2023-05-02T07:27:33.308Z,98806.03
2023-05-02T07:30:00.590Z,98807.13
2023-05-02T07:32:28.089Z,98811.88
2023-05-02T07:34:56.316Z,98816.38
2023-05-02T07:37:23.172Z,98809.09
2023-05-02T07:39:50.273Z,98812.00
2023-05-02T07:42:16.997Z,98811.84
2023-05-02T07:44:44.135Z,98818.56
2023-05-02T07:47:10.939Z,98824.38
2023-05-02T07:49:38.007Z,98826.13
2023-05-02T07:52:04.964Z,98821.88
2023-05-02T07:54:32.096Z,98824.28
2023-05-02T07:57:02.382Z,98828.75
2023-05-02T07:59:32.307Z,98831.66
2023-05-02T08:01:59.160Z,98826.19
2023-05-02T08:04:26.502Z,98825.34
2023-05-02T08:06:53.529Z,98825.53
2023-05-02T08:09:20.637Z,98833.91
2023-05-02T08:11:47.489Z,98827.97
2023-05-02T08:14:16.062Z,98829.47
2023-05-02T08:16:44.755Z,98825.22
2023-05-02T08:19:13.247Z,98828.81
2023-05-02T08:21:39.988Z,98837.50
2023-05-02T08:24:07.112Z,98835.63
2023-05-02T08:26:34.031Z,98841.75
2023-05-02T08:29:01.325Z,98841.72
2023-05-02T08:31:28.296Z,98843.78
2023-05-02T08:33:55.502Z,98838.13
2023-05-02T08:36:22.375Z,98842.53
2023-05-02T08:38:49.599Z,98847.00
2023-05-02T08:41:17.887Z,98840.84
2023-05-02T08:43:48.096Z,98843.03
2023-05-02T08:46:16.664Z,98851.22
2023-05-02T08:48:46.015Z,98845.53
2023-05-02T08:51:14.437Z,98850.31
2023-05-02T08:53:41.910Z,98847.41
2023-05-02T08:56:09.470Z,98846.31
2023-05-02T08:58:40.330Z,98847.81
2023-05-02T09:01:17.346Z,98852.03
2023-05-02T09:03:47.086Z,98855.72
2023-05-02T09:06:18.899Z,98854.88
2023-05-02T09:08:49.420Z,98858.59
2023-05-02T09:11:18.180Z,98858.34
2023-05-02T09:13:52.784Z,98859.34
2023-05-02T09:16:23.869Z,98869.25
2023-05-02T09:18:52.884Z,98859.75
2023-05-02T09:21:22.687Z,98865.53
2023-05-02T09:23:50.798Z,98863.59
2023-05-02T09:26:27.865Z,98867.84
2023-05-02T09:28:56.662Z,98868.44
2023-05-02T09:31:49.588Z,98876.25
2023-05-02T09:34:18.292Z,98879.78
2023-05-02T09:36:46.871Z,98883.81
2023-05-02T09:39:15.576Z,98878.91
2023-05-02T09:41:43.164Z,98878.81
2023-05-02T09:44:14.338Z,98883.16
2023-05-02T09:46:42.900Z,98876.75
2023-05-02T09:49:10.355Z,98875.41
2023-05-02T09:51:37.628Z,98881.97
2023-05-02T09:54:04.903Z,98881.97
2023-05-02T09:56:31.750Z,98886.75
2023-05-02T09:59:17.341Z,98889.88
2023-05-02T10:01:44.162Z,98888.88
2023-05-02T10:04:18.886Z,98891.44
2023-05-02T10:06:46.210Z,98898.56
2023-05-02T10:09:16.638Z,98904.97
2023-05-02T10:11:48.380Z,98897.03
2023-05-02T10:14:15.558Z,98896.63
2023-05-02T10:16:48.167Z,98903.44
2023-05-02T10:19:17.999Z,98906.28
2023-05-02T10:21:44.889Z,98908.25
2023-05-02T10:24:13.231Z,98911.94
2023-05-02T10:26:40.024Z,98910.72
2023-05-02T10:29:08.335Z,98913.25
2023-05-02T10:31:35.247Z,98908.22
2023-05-02T10:34:02.363Z,98905.47
2023-05-02T10:36:29.314Z,98911.44
2023-05-02T10:38:56.560Z,98905.75
2023-05-02T10:41:26.480Z,98914.66
2023-05-02T10:43:53.771Z,98912.34
2023-05-02T10:46:34.377Z,98912.16
2023-05-02T10:49:08.936Z,98916.47
2023-05-02T10:51:36.868Z,98920.72
2023-05-02T10:54:19.379Z,98921.16
2023-05-02T10:57:03.659Z,98924.38
2023-05-02T10:59:40.605Z,98928.00
2023-05-02T11:02:31.047Z,98924.59
2023-05-02T11:05:07.694Z,98924.00
2023-05-02T11:07:35.689Z,98924.00
2023-05-02T11:10:18.322Z,98931.84
2023-05-02T11:12:51.680Z,98930.63
2023-05-02T11:15:33.626Z,98936.78
2023-05-02T11:18:09.500Z,98939.91
2023-05-02T11:20:39.543Z,98941.81
2023-05-02T11:23:15.617Z,98938.69
2023-05-02T11:25:43.651Z,98950.31
2023-05-02T11:28:39.529Z,98947.19
2023-05-02T11:31:27.451Z,98952.69
2023-05-02T11:34:03.717Z,98952.69
2023-05-02T11:36:32.268Z,98953.72
2023-05-02T11:39:00.194Z,98957.13
2023-05-02T11:41:40.093Z,98956.47
2023-05-02T11:44:07.352Z,98957.31
2023-05-02T11:46:37.094Z,98970.22
2023-05-02T11:49:05.094Z,98964.91
2023-05-02T11:51:33.451Z,98968.91
2023-05-02T11:54:00.234Z,98972.06
2023-05-02T11:56:27.547Z,98981.31
2023-05-02T11:59:03.957Z,98975.19
2023-05-02T12:01:31.411Z,98984.47
2023-05-02T12:04:05.135Z,98986.75
2023-05-02T12:06:32.325Z,98986.28
2023-05-02T12:09:14.457Z,98984.44
2023-05-02T12:11:41.545Z,98978.69
2023-05-02T12:14:08.589Z,98971.22
2023-05-02T12:16:36.032Z,98968.84
2023-05-02T12:19:04.311Z,98970.28
2023-05-02T12:21:33.151Z,98972.75
2023-05-02T12:24:01.034Z,98976.47
2023-05-02T12:26:33.133Z,98987.81
2023-05-02T12:29:00.964Z,98986.00
2023-05-02T12:31:31.290Z,98993.47
2023-05-02T12:34:00.438Z,98992.66
2023-05-02T12:36:30.816Z,98995.09
2023-05-02T12:38:59.882Z,99001.16
2023-05-02T12:41:37.507Z,98999.31
2023-05-02T12:44:04.973Z,98998.66
2023-05-02T12:46:32.665Z,98992.81
2023-05-02T12:49:08.221Z,98992.81
2023-05-02T12:51:36.626Z,98998.56
2023-05-02T12:54:03.961Z,98994.81
2023-05-02T12:56:38.397Z,98998.56
2023-05-02T12:59:05.782Z,99002.44
2023-05-02T13:01:33.923Z,98997.78
2023-05-02T13:04:00.882Z,99007.81
2023-05-02T13:06:28.007Z,99004.00
2023-05-02T13:08:54.751Z,99000.59
2023-05-02T13:11:21.941Z,99002.69
2023-05-02T13:13:48.706Z,99002.03
2023-05-02T13:16:15.875Z,99008.03
2023-05-02T13:18:43.582Z,99008.72
2023-05-02T13:21:12.499Z,99012.81
2023-05-02T13:23:39.961Z,99011.44
2023-05-02T13:26:07.004Z,99009.06
2023-05-02T13:28:35.755Z,99001.41
2023-05-02T13:31:02.985Z,99004.16
2023-05-02T13:33:29.825Z,98999.16
2023-05-02T13:35:56.892Z,99007.38
2023-05-02T13:38:23.673Z,99011.16
2023-05-02T13:40:50.795Z,99016.47
2023-05-02T13:43:17.505Z,99025.72
2023-05-02T13:45:44.871Z,99025.22
2023-05-02T13:48:11.699Z,99023.53
2023-05-02T13:50:39.199Z,99026.59
2023-05-02T13:53:06.241Z,99030.34
2023-05-02T13:55:33.416Z,99037.06
2023-05-02T13:58:00.315Z,99027.97
2023-05-02T14:00:29.225Z,99027.13
2023-05-02T14:02:56.178Z,99036.19
2023-05-02T14:05:23.357Z,99032.78
2023-05-02T14:07:50.852Z,99031.06
2023-05-02T14:10:18.067Z,99037.13
2023-05-02T14:12:44.837Z,99034.56
2023-05-02T14:15:12.564Z,99036.41
2023-05-02T14:17:39.403Z,99038.97
2023-05-02T14:20:07.995Z,99045.69
2023-05-02T14:22:34.865Z,99045.88
2023-05-02T14:25:01.960Z,99047.44
2023-05-02T14:27:28.802Z,99048.81
2023-05-02T14:29:55.983Z,99057.25
2023-05-02T14:32:22.954Z,99054.03
2023-05-02T14:34:49.990Z,99065.16
2023-05-02T14:37:16.698Z,99067.72
2023-05-02T14:39:46.632Z,99068.44
2023-05-02T14:42:14.833Z,99075.31
2023-05-02T14:44:42.277Z,99069.34
2023-05-02T14:47:09.305Z,99073.97
2023-05-02T14:49:36.769Z,99073.97
2023-05-02T14:52:03.691Z,99085.59
2023-05-02T14:54:31.011Z,99101.88
2023-05-02T14:56:58.064Z,99111.78
2023-05-02T14:59:27.932Z,99115.91
2023-05-02T15:01:54.866Z,99130.31
2023-05-02T15:04:22.424Z,99139.06
2023-05-02T15:06:49.568Z,99142.19
2023-05-02T15:09:16.690Z,99151.25
2023-05-02T15:11:44.773Z,99156.41
2023-05-02T15:14:12.136Z,99153.84
2023-05-02T15:16:39.789Z,99157.97
2023-05-02T15:19:07.453Z,99149.59
2023-05-02T15:21:35.198Z,99138.25
2023-05-02T15:24:02.730Z,99127.66
2023-05-02T15:26:30.248Z,99131.59
2023-05-02T15:28:57.361Z,99132.81
2023-05-02T15:31:24.454Z,99143.22
2023-05-02T15:33:51.715Z,99145.28
2023-05-02T15:36:18.580Z,99133.31
2023-05-02T15:38:45.638Z,99129.03
2023-05-02T15:41:12.389Z,99115.88
2023-05-02T15:43:39.586Z,99119.47
2023-05-02T15:46:06.552Z,99112.44
2023-05-02T15:48:34.797Z,99113.47
2023-05-02T15:51:02.720Z,99113.66
2023-05-02T15:53:29.920Z,99120.50
2023-05-02T15:55:56.783Z,99127.16
2023-05-02T15:58:23.949Z,99126.47
2023-05-02T16:00:52.525Z,99128.00
2023-05-02T16:03:19.901Z,99140.81
2023-05-02T16:05:46.840Z,99148.34
2023-05-02T16:08:13.945Z,99149.50
2023-05-02T16:10:43.255Z,99150.72
2023-05-02T16:13:10.538Z,99155.47
2023-05-02T16:15:38.085Z,99148.78
2023-05-02T16:18:05.302Z,99145.69
2023-05-02T16:20:36.472Z,99149.31
2023-05-02T16:23:04.145Z,99152.38
2023-05-02T16:25:31.121Z,99150.28
2023-05-02T16:27:58.230Z,99125.50
2023-05-02T16:30:25.155Z,99103.44
2023-05-02T16:32:52.886Z,99092.16
2023-05-02T16:35:20.059Z,99084.81
2023-05-02T16:37:48.200Z,99079.50
2023-05-02T16:40:15.104Z,99094.88
2023-05-02T16:42:42.325Z,99106.16
2023-05-02T16:45:09.370Z,99105.13
2023-05-02T16:47:36.760Z,99117.97
2023-05-02T16:50:03.819Z,99124.44
2023-05-02T16:52:31.503Z,99142.16
2023-05-02T16:54:59.096Z,99157.88
2023-05-02T16:57:27.265Z,99160.09
2023-05-02T16:59:54.082Z,99165.03
2023-05-02T17:02:22.231Z,99162.78
2023-05-02T17:04:49.986Z,99157.97
2023-05-02T17:07:17.352Z,99155.06
2023-05-02T17:09:44.615Z,99154.22
2023-05-02T17:12:11.986Z,99148.06
2023-05-02T17:14:41.146Z,99155.75
2023-05-02T17:17:08.599Z,99158.63
2023-05-02T17:19:36.023Z,99153.81
2023-05-02T17:22:05.314Z,99166.47
2023-05-02T17:24:32.608Z,99161.47
2023-05-02T17:27:00.157Z,99170.50
2023-05-02T17:29:27.530Z,99180.59
2023-05-02T17:31:57.325Z,99190.69
2023-05-02T17:34:28.481Z,99189.41
2023-05-02T17:36:56.052Z,99197.06
2023-05-02T17:39:23.339Z,99197.91
2023-05-02T17:41:51.118Z,99207.28
2023-05-02T17:44:18.572Z,99210.50
2023-05-02T17:46:45.589Z,99214.72
2023-05-02T17:49:15.330Z,99220.34
2023-05-02T17:51:42.695Z,99223.53
2023-05-02T17:54:09.862Z,99219.81
2023-05-02T17:56:37.511Z,99221.13
2023-05-02T17:59:05.099Z,99228.31
2023-05-02T18:01:32.172Z,99231.34
2023-05-02T18:04:00.113Z,99230.28
2023-05-02T18:06:28.341Z,99232.13
2023-05-02T18:08:55.699Z,99238.09
2023-05-02T18:11:24.254Z,99243.16
2023-05-02T18:13:52.768Z,99239.72
2023-05-02T18:16:19.758Z,99250.97
2023-05-02T18:18:47.052Z,99251.97
2023-05-02T18:21:22.586Z,99253.69
2023-05-02T18:23:49.733Z,99258.34
2023-05-02T18:26:16.586Z,99260.06
2023-05-02T18:28:46.646Z,99261.41
2023-05-02T18:31:17.631Z,99269.75
2023-05-02T18:33:46.559Z,99277.03
2023-05-02T18:36:14.522Z,99273.78
2023-05-02T18:38:42.370Z,99275.81
2023-05-02T18:41:09.457Z,99272.38
2023-05-02T18:43:36.735Z,99276.25
2023-05-02T18:46:03.632Z,99282.47
2023-05-02T18:48:31.476Z,99281.59
2023-05-02T18:50:58.379Z,99285.09
2023-05-02T18:53:26.484Z,99280.50
2023-05-02T18:55:57.418Z,99285.41
2023-05-02T18:58:24.516Z,99290.59
2023-05-02T19:00:51.340Z,99289.03
2023-05-02T19:03:19.063Z,99286.06
2023-05-02T19:05:46.120Z,99289.66
2023-05-02T19:08:13.246Z,99292.28
2023-05-02T19:10:40.889Z,99292.28
2023-05-02T19:13:08.056Z,99285.94
2023-05-02T19:15:34.976Z,99290.00
2023-05-02T19:18:02.967Z,99290.16
2023-05-02T19:20:30.478Z,99299.31
2023-05-02T19:23:10.984Z,99286.16
2023-05-02T19:25:45.596Z,99285.13
2023-05-02T19:28:17.292Z,99286.91
2023-05-02T19:30:44.609Z,99280.59
2023-05-02T19:33:11.979Z,99289.34
2023-05-02T19:35:39.437Z,99282.63
2023-05-02T19:38:06.718Z,99281.91
2023-05-02T19:40:33.593Z,99276.44
2023-05-02T19:43:02.061Z,99274.47
2023-05-02T19:45:30.439Z,99273.47
2023-05-02T19:47:59.202Z,99281.50
2023-05-02T19:50:26.425Z,99278.91
2023-05-02T19:52:54.115Z,99295.47
2023-05-02T19:55:21.644Z,99293.47
2023-05-02T19:57:48.891Z,99283.13
2023-05-02T20:00:16.095Z,99287.44
2023-05-02T20:02:43.462Z,99300.19
2023-05-02T20:05:10.492Z,99302.22
2023-05-02T20:07:39.123Z,99309.09
2023-05-02T20:10:07.942Z,99309.09
2023-05-02T20:12:35.140Z,99316.97
2023-05-02T20:15:04.215Z,99313.56
2023-05-02T20:17:31.561Z,99325.28
2023-05-02T20:19:58.548Z,99322.28
2023-05-02T20:22:25.657Z,99327.59
2023-05-02T20:24:52.480Z,99315.28
2023-05-02T20:27:19.703Z,99332.75
2023-05-02T20:29:47.382Z,99323.75
2023-05-02T20:32:14.560Z,99328.16
2023-05-02T20:34:41.602Z,99337.06
2023-05-02T20:37:10.282Z,99335.06
2023-05-02T20:39:37.781Z,99330.63
2023-05-02T20:42:05.811Z,99331.78
2023-05-02T20:44:33.617Z,99343.50
2023-05-02T20:47:01.377Z,99345.22
2023-05-02T20:49:32.375Z,99337.19
2023-05-02T20:52:04.084Z,99344.50
2023-05-02T20:54:31.546Z,99345.50
2023-05-02T20:56:58.639Z,99347.38
2023-05-02T20:59:25.752Z,99347.78
2023-05-02T21:01:52.871Z,99352.81
2023-05-02T21:04:19.809Z,99356.97
2023-05-02T21:06:47.189Z,99363.84
2023-05-02T21:09:14.244Z,99359.22
2023-05-02T21:11:41.915Z,99359.81
2023-05-02T21:14:08.813Z,99351.66
2023-05-02T21:16:36.721Z,99358.38
2023-05-02T21:19:03.656Z,99366.25
2023-05-02T21:21:30.881Z,99367.97
2023-05-02T21:23:58.676Z,99361.09
2023-05-02T21:26:26.322Z,99372.84
2023-05-02T21:28:53.169Z,99375.97
2023-05-02T21:31:20.310Z,99376.97
2023-05-02T21:33:47.055Z,99375.97
2023-05-02T21:36:14.259Z,99381.00
2023-05-02T21:38:41.033Z,99381.25
2023-05-02T21:41:08.879Z,99380.53
2023-05-02T21:43:38.367Z,99369.81
2023-05-02T21:46:05.494Z,99387.09
2023-05-02T21:48:33.331Z,99384.38
2023-05-02T21:51:00.334Z,99376.03
2023-05-02T21:53:27.222Z,99380.53
2023-05-02T21:55:54.757Z,99382.34
2023-05-02T21:58:21.518Z,99381.59
2023-05-02T22:00:48.613Z,99388.78
2023-05-02T22:03:15.521Z,99385.59
2023-05-02T22:05:42.592Z,99389.75
2023-05-02T22:08:09.984Z,99385.75
2023-05-02T22:10:38.666Z,99392.91
2023-05-02T22:13:06.524Z,99393.06
2023-05-02T22:15:33.591Z,99395.91
2023-05-02T22:18:01.674Z,99396.75
2023-05-02T22:20:28.929Z,99394.56
2023-05-02T22:22:55.672Z,99408.47
2023-05-02T22:25:22.712Z,99395.00
2023-05-02T22:27:49.451Z,99408.16
2023-05-02T22:30:16.636Z,99408.16
2023-05-02T22:32:43.367Z,99400.75
2023-05-02T22:35:10.844Z,99402.16
2023-05-02T22:37:37.614Z,99406.28
2023-05-02T22:40:07.469Z,99402.28
2023-05-02T22:42:34.214Z,99403.56
2023-05-02T22:45:01.545Z,99400.53
2023-05-02T22:47:29.231Z,99393.81
2023-05-02T22:49:59.692Z,99397.94
2023-05-02T22:52:27.462Z,99402.97
2023-05-02T22:54:54.617Z,99400.41
2023-05-02T22:57:21.304Z,99395.94
2023-05-02T22:59:49.418Z,99396.78
2023-05-02T23:02:16.117Z,99394.06
2023-05-02T23:04:43.234Z,99386.91
2023-05-02T23:07:10.257Z,99390.31
2023-05-02T23:09:37.264Z,99386.19
2023-05-02T23:12:04.270Z,99397.44
2023-05-02T23:14:31.356Z,99385.47
2023-05-02T23:16:58.425Z,99386.03
2023-05-02T23:19:25.919Z,99382.88
2023-05-02T23:21:52.659Z,99380.56
2023-05-02T23:24:19.697Z,99389.41
2023-05-02T23:26:46.410Z,99379.28
2023-05-02T23:29:13.590Z,99384.13
2023-05-02T23:31:40.531Z,99383.53
2023-05-02T23:34:07.551Z,99390.25
2023-05-02T23:36:34.640Z,99387.41
2023-05-02T23:39:05.515Z,99380.38
2023-05-02T23:41:32.312Z,99379.66
2023-05-02T23:43:59.407Z,99378.03
2023-05-02T23:46:27.229Z,99378.03
2023-05-02T23:48:54.309Z,99383.47
2023-05-02T23:51:21.061Z,99371.31
2023-05-02T23:53:48.090Z,99376.75
2023-05-02T23:56:14.804Z,99378.88
2023-05-02T23:58:41.818Z,99372.72
